createdAt,value
2022-09-07T00:04:49.994Z,100428.34
2022-09-07T00:10:57.910Z,100597.72
2022-09-07T00:16:59.768Z,100584.56
2022-09-07T00:23:01.501Z,100479.47
2022-09-07T00:29:04.468Z,100578.16
2022-09-07T00:35:06.619Z,100524.84
2022-09-07T00:41:08.799Z,100558.16
2022-09-07T00:47:18.980Z,100588.88
2022-09-07T00:53:28.080Z,100502.91
2022-09-07T00:59:34.572Z,100548.50
2022-09-07T01:05:43.867Z,100567.84
2022-09-07T01:11:51.092Z,100542.06
2022-09-07T01:18:07.673Z,100561.88
2022-09-07T01:24:47.047Z,100546.91
2022-09-07T01:30:57.490Z,100553.38
2022-09-07T01:37:05.394Z,100553.28
2022-09-07T01:43:23.299Z,100524.75
2022-09-07T01:49:45.647Z,100489.00
2022-09-07T01:55:53.636Z,100515.84
2022-09-07T02:02:19.573Z,100533.34
2022-09-07T02:08:34.251Z,100531.81
2022-09-07T02:14:44.035Z,100483.97
2022-09-07T02:20:53.648Z,100511.06
2022-09-07T02:26:58.171Z,100507.56
2022-09-07T02:33:00.276Z,100499.41
2022-09-07T02:39:02.234Z,100500.94
2022-09-07T02:45:08.503Z,100489.91
2022-09-07T02:51:22.890Z,100453.53
2022-09-07T02:57:53.334Z,100495.50
2022-09-07T03:04:01.027Z,100492.03
2022-09-07T03:10:06.224Z,100504.03
2022-09-07T03:16:13.551Z,100477.97
2022-09-07T03:22:15.440Z,100483.56
2022-09-07T03:28:17.604Z,100454.53
2022-09-07T03:34:19.456Z,100476.22
2022-09-07T03:40:21.370Z,100495.03
2022-09-07T03:46:23.328Z,100494.19
2022-09-07T03:52:25.249Z,100494.63
2022-09-07T03:58:29.450Z,100436.63
2022-09-07T04:04:31.557Z,100476.91
2022-09-07T04:10:38.566Z,100487.06
2022-09-07T04:16:40.939Z,100467.75
2022-09-07T04:22:43.422Z,100465.81
2022-09-07T04:28:45.854Z,100471.03
2022-09-07T04:34:47.659Z,100460.66
2022-09-07T04:40:49.430Z,100505.16
2022-09-07T04:46:51.349Z,100487.97
2022-09-07T04:52:53.116Z,100428.88
2022-09-07T04:58:55.047Z,100482.22
2022-09-07T05:05:02.009Z,100377.56
2022-09-07T05:11:04.981Z,100480.53
2022-09-07T05:17:07.951Z,100481.00
2022-09-07T05:23:09.769Z,100470.34
2022-09-07T05:35:34.640Z,100387.06
2022-09-07T05:41:36.729Z,100427.50
2022-09-07T05:47:39.521Z,100403.63
2022-09-07T05:53:49.426Z,100322.41
2022-09-07T05:59:55.679Z,100349.63
2022-09-07T06:06:09.177Z,100435.59
2022-09-07T06:12:14.232Z,100439.13
2022-09-07T06:24:47.756Z,100386.09
2022-09-07T06:30:49.886Z,100457.31
2022-09-07T06:36:52.464Z,100447.88
2022-09-07T06:49:13.345Z,100420.97
2022-09-07T06:55:15.159Z,100320.75
2022-09-07T07:01:29.326Z,100457.75
2022-09-07T07:14:23.741Z,100459.56
2022-09-07T07:26:50.331Z,100351.03
2022-09-07T07:32:54.327Z,100367.66
2022-09-07T07:46:02.636Z,100315.53
2022-09-07T07:58:35.933Z,100480.13
2022-09-07T08:11:07.364Z,100393.75
2022-09-07T08:17:15.269Z,100385.16
2022-09-07T08:23:32.524Z,100302.28
2022-09-07T08:29:35.453Z,100405.75
2022-09-07T08:35:37.619Z,100431.47
2022-09-07T08:42:03.530Z,100439.78
2022-09-07T08:48:06.277Z,100404.84
2022-09-07T08:54:12.836Z,100292.41
2022-09-07T09:07:00.045Z,100436.19
2022-09-07T09:13:35.924Z,100360.56
2022-09-07T09:19:55.009Z,100413.88
2022-09-07T09:26:15.512Z,100307.00
2022-09-07T09:52:43.584Z,100345.84
2022-09-07T10:12:56.038Z,100272.19
2022-09-07T10:18:59.462Z,100305.66
2022-09-07T10:25:04.457Z,100286.91
2022-09-07T10:31:31.808Z,100299.97
2022-09-07T10:38:21.030Z,100354.00
2022-09-07T10:44:55.706Z,100353.72
2022-09-07T10:51:29.971Z,100335.66
2022-09-07T11:12:11.365Z,100161.81
2022-09-07T11:18:40.151Z,100162.88
2022-09-07T11:37:59.313Z,100230.13
2022-09-07T11:44:16.275Z,100197.94
2022-09-07T11:50:22.481Z,100234.69
2022-09-07T11:56:36.247Z,100261.16
2022-09-07T12:03:00.957Z,100270.06
2022-09-07T12:09:19.409Z,100256.66
2022-09-07T12:15:33.442Z,100268.44
2022-09-07T12:21:47.742Z,100266.72
2022-09-07T12:27:55.321Z,100113.28
2022-09-07T12:40:37.550Z,100233.31
2022-09-07T12:46:42.068Z,100231.91
2022-09-07T13:12:57.814Z,100207.50
2022-09-07T13:19:06.608Z,100201.97
2022-09-07T13:38:55.615Z,100183.56
2022-09-07T13:45:01.490Z,100162.03
2022-09-07T13:51:23.467Z,100172.97
2022-09-07T13:58:07.613Z,100160.34
2022-09-07T14:04:30.248Z,100152.53
2022-09-07T14:10:32.625Z,100171.47
2022-09-07T14:16:49.465Z,100056.00
2022-09-07T14:22:53.540Z,100184.34
2022-09-07T14:29:06.002Z,100174.94
2022-09-07T14:35:22.140Z,100132.63
2022-09-07T14:41:56.313Z,100057.38
2022-09-07T14:48:13.385Z,100174.75
2022-09-07T15:07:40.133Z,100181.03
2022-09-07T15:14:07.409Z,100157.66
2022-09-07T15:27:03.535Z,100162.41
2022-09-07T15:33:16.487Z,100039.56
2022-09-07T16:44:47.829Z,100152.72
2022-09-07T16:57:09.546Z,100106.88
2022-09-07T17:03:11.587Z,100175.91
2022-09-07T17:09:14.704Z,100165.44
2022-09-07T17:15:16.624Z,100037.09
2022-09-07T17:21:19.719Z,100177.16
2022-09-07T17:27:21.857Z,100188.47
2022-09-07T17:33:23.811Z,100061.63
2022-09-07T17:39:25.621Z,100082.56
2022-09-07T17:45:28.018Z,100134.78
2022-09-07T17:51:32.194Z,100148.81
2022-09-07T18:03:54.632Z,100139.28
2022-09-07T18:09:56.457Z,100188.59
2022-09-07T18:15:58.620Z,100137.06
2022-09-07T18:22:02.715Z,100207.56
2022-09-07T18:34:31.855Z,100043.72
2022-09-07T18:40:37.864Z,100153.34
2022-09-07T18:46:45.915Z,100152.69
2022-09-07T18:52:53.023Z,100040.25
2022-09-07T18:58:57.152Z,100114.66
2022-09-07T19:11:26.456Z,100145.81
2022-09-07T19:17:28.270Z,100207.66
2022-09-07T19:23:30.064Z,100173.41
2022-09-07T19:29:31.845Z,100142.50
2022-09-07T19:35:35.553Z,100173.69
2022-09-07T19:41:41.069Z,100167.22
2022-09-07T19:47:42.842Z,100187.19
2022-09-07T19:53:47.061Z,100126.72
2022-09-07T19:59:48.875Z,100154.44
2022-09-07T20:05:50.643Z,100128.81
2022-09-07T20:11:52.426Z,100155.41
2022-09-07T20:17:54.588Z,100188.66
2022-09-07T20:23:56.862Z,100182.16
2022-09-07T20:29:58.576Z,100116.59
2022-09-07T20:36:04.488Z,100179.91
2022-09-07T20:42:08.039Z,100122.66
2022-09-07T20:48:09.770Z,100128.75
2022-09-07T20:54:11.540Z,100179.84
2022-09-07T21:00:13.513Z,100169.88
2022-09-07T21:06:16.118Z,100146.19
2022-09-07T21:12:17.985Z,100089.78
2022-09-07T21:18:19.845Z,100181.28
2022-09-07T21:24:23.701Z,100149.25
2022-09-07T21:30:25.509Z,100098.53
2022-09-07T21:36:28.098Z,100160.22
2022-09-07T21:42:29.868Z,100141.25
2022-09-07T21:48:31.590Z,100131.88
2022-09-07T21:54:33.464Z,100109.69
2022-09-07T22:00:35.283Z,100102.28
2022-09-07T22:06:37.811Z,100132.50
2022-09-07T22:12:39.996Z,100077.44
2022-09-07T22:18:46.230Z,100141.03
2022-09-07T22:24:47.915Z,100156.53
2022-09-07T22:30:49.746Z,100081.25
2022-09-07T22:36:51.469Z,100057.31
2022-09-07T22:42:53.228Z,100078.81
2022-09-07T22:48:57.455Z,100148.59
2022-09-07T22:54:59.218Z,100138.41
2022-09-07T23:01:01.868Z,100060.09
2022-09-07T23:07:03.720Z,100083.28
2022-09-07T23:13:05.498Z,100078.47
2022-09-07T23:19:07.766Z,100122.59
2022-09-07T23:25:09.728Z,99993.16
2022-09-07T23:31:11.764Z,100055.44
2022-09-07T23:37:13.482Z,100066.09
2022-09-07T23:43:15.320Z,100062.56
2022-09-07T23:49:17.183Z,100122.00
2022-09-07T23:55:19.000Z,100116.50
